Aurora Australis — VNAA — position and weather

sailwx.info

Track history (hours):
 
Tides and Currents Weather Stations Pressure Air Temp Water Temp Dewpoint Dewpoint Depression Visibility Wind Speed Wind Dir Waves Ship Positions

Oceanographic research ship Aurora Australis (Australia)

Detailed information on ship capabilities available from University of Delaware's Ocean Information Center.

Last reported at 2017-Mar-31 23:31 UTC. Time now 2017-Apr-30 14:45 UTC.
Position S 42°53' E 147°20'.
Warning: this ship's position is 29 days out of date.

Length 94.9 m; beam 20.3 m; draft 7.9 m.

Type: Ship. MMSI: 503043000.

Date/timePositionNaut miles runAvg speedWind from/ knotsBaromVisibWave heightAir tempDewpointWater temp
2017-Mar-31 23:31S 42°53' E 147°20'0 0.0
2017-Mar-31 23:29S 42°53' E 147°20'0 0.0
2017-Mar-31 23:00S 42°53' E 147°20'0 0.9
2017-Mar-31 22:30S 42°53' E 147°21'2 4.7
2017-Mar-31 22:00S 42°51' E 147°20'0 0.0
2017-Mar-31 21:29S 42°51' E 147°20'0 0.0
2017-Mar-31 21:00S 42°51' E 147°20'0 0.0
2017-Mar-31 20:27S 42°51' E 147°20'0 0.0
2017-Mar-31 19:51S 42°51' E 147°20'0 0.1
2017-Mar-31 19:30S 42°51' E 147°20'0 0.1
2017-Mar-31 19:00S 42°51' E 147°20'0 0.0
2017-Mar-31 18:30S 42°51' E 147°20'0 0.0
2017-Mar-31 18:00S 42°51' E 147°20'0 0.0
2017-Mar-31 17:30S 42°51' E 147°20'0 0.0
2017-Mar-31 17:00S 42°51' E 147°20'0 0.0
2017-Mar-31 16:30S 42°51' E 147°20'0 0.0
2017-Mar-31 16:00S 42°51' E 147°20'0 0.0
2017-Mar-31 15:30S 42°51' E 147°20'0 0.0
2017-Mar-31 15:00S 42°51' E 147°20'0 0.0
2017-Mar-31 14:00S 42°51' E 147°20'0 0.0
2017-Mar-31 13:30S 42°51' E 147°20'0 0.0
2017-Mar-31 13:00S 42°51' E 147°20'0 0.0
2017-Mar-31 12:30S 42°51' E 147°20'0 0.0
2017-Mar-31 12:00S 42°51' E 147°20'0 0.0
2017-Mar-31 11:30S 42°51' E 147°20'0 0.0
2017-Mar-31 11:00S 42°51' E 147°20'0 0.0
2017-Mar-31 10:30S 42°51' E 147°20'0 0.0
2017-Mar-31 10:00S 42°51' E 147°20'0 0.0
2017-Mar-31 09:30S 42°51' E 147°20'0 0.1
2017-Mar-31 09:00S 42°51' E 147°20'0 0.1
2017-Mar-31 08:30S 42°51' E 147°20'0 0.0
2017-Mar-31 08:00S 42°51' E 147°20'0 0.0
2017-Mar-31 07:30S 42°51' E 147°20'2 4.1
2017-Mar-31 06:58S 42°53' E 147°21'0 0.5
2017-Mar-31 06:28S 42°53' E 147°20'0 0.0
2017-Mar-31 05:58S 42°53' E 147°20'0 0.0
2017-Mar-31 05:28S 42°53' E 147°20'0 0.0
2017-Mar-31 04:58S 42°53' E 147°20'0 0.0
2017-Mar-31 04:31S 42°53' E 147°20'0 0.0
2017-Mar-31 03:28S 42°53' E 147°20'0 0.0
2017-Mar-31 02:31S 42°53' E 147°20'0 0.0
2017-Mar-31 01:31S 42°53' E 147°20'0 0.0
2017-Mar-31 00:31S 42°53' E 147°20'0 0.0
2017-Mar-30 23:31S 42°53' E 147°20'0 0.0
2017-Mar-30 22:31S 42°53' E 147°20'0 0.0
2017-Mar-30 21:31S 42°53' E 147°20'0 0.0
2017-Mar-30 20:31S 42°53' E 147°20'0 0.0
2017-Mar-30 19:31S 42°53' E 147°20'0 0.0
2017-Mar-30 18:31S 42°53' E 147°20'0 0.0
2017-Mar-30 17:31S 42°53' E 147°20'0 0.0
2017-Mar-30 16:31S 42°53' E 147°20'0 0.0
2017-Mar-30 15:31S 42°53' E 147°20'0 0.0
2017-Mar-30 14:31S 42°53' E 147°20'0 0.0
2017-Mar-30 13:31S 42°53' E 147°20'0 0.0
2017-Mar-30 12:31S 42°53' E 147°20'0 0.0
2017-Mar-30 11:31S 42°53' E 147°20'0 0.0
2017-Mar-30 10:31S 42°53' E 147°20'0 0.0
2017-Mar-30 09:31S 42°53' E 147°20'0 0.0
2017-Mar-30 08:31S 42°53' E 147°20'0 0.0
2017-Mar-30 07:31S 42°53' E 147°20'0 0.2
2017-Mar-30 06:33S 42°53' E 147°20'4 3.4
2017-Mar-30 05:31S 42°56' E 147°24'0 0.0
2017-Mar-30 04:31S 42°56' E 147°24'0 0.0
2017-Mar-30 03:31S 42°56' E 147°24'0 0.0
2017-Mar-30 02:31S 42°56' E 147°24'0 0.0
2017-Mar-30 01:31S 42°56' E 147°24'0 0.0
2017-Mar-30 00:32S 42°56' E 147°24'0 0.1
2017-Mar-29 23:32S 42°56' E 147°24'0 0.0
2017-Mar-29 22:33S 42°56' E 147°24'0 0.0
2017-Mar-29 21:33S 42°56' E 147°24'0 0.0
2017-Mar-29 20:33S 42°56' E 147°24'3 3.1
2017-Mar-29 19:33S 42°59' E 147°22'6 6.1
2017-Mar-29 18:33S 43°05' E 147°24'105 8.4
2017-Mar-29 06:00S 44°24' E 149°00'29 9.8 210 / 21998.410.8 11.810.413.9
2017-Mar-29 03:00S 44°48' E 149°24'3210.7 360 / 35997.2 5.4 17.012.915.9
2017-Mar-29 00:00S 45°12' E 149°54'3210.6 350 / 27999.710.8 16.513.215.3
2017-Mar-28 21:00S 45°36' E 150°24'115 9.6 340 / 291000.7 5.4 15.711.513.8
2017-Mar-28 09:00S 47°00' E 152°18'68 7.5 330 / 341000.5 5.4 14.611.612.6
2017-Mar-28 00:00S 47°54' E 153°18'   240 / 11997.3 2.2 6.9 5.4 7.5
Track history (hours):
 
Tides and Currents Weather Stations Pressure Air Temp Water Temp Dewpoint Dewpoint Depression Visibility Wind Speed Wind Dir Waves Ship Positions

Oceanographic research ship Aurora Australis (Australia)

Detailed information on ship capabilities available from University of Delaware's Ocean Information Center.

Last reported at 2017-Mar-31 23:31 UTC. Time now 2017-Apr-30 14:45 UTC.
Position S 42°53' E 147°20'.
Warning: this ship's position is 29 days out of date.

Length 94.9 m; beam 20.3 m; draft 7.9 m.

Type: Ship. MMSI: 503043000.

Date/timePositionNaut miles runAvg speedWind from/ knotsBaromVisibWave heightAir tempDewpointWater temp
2017-Mar-31 23:31S 42°53' E 147°20'0 0.0
2017-Mar-31 23:29S 42°53' E 147°20'0 0.0
2017-Mar-31 23:00S 42°53' E 147°20'0 0.9
2017-Mar-31 22:30S 42°53' E 147°21'2 4.7
2017-Mar-31 22:00S 42°51' E 147°20'0 0.0
2017-Mar-31 21:29S 42°51' E 147°20'0 0.0
2017-Mar-31 21:00S 42°51' E 147°20'0 0.0
2017-Mar-31 20:27S 42°51' E 147°20'0 0.0
2017-Mar-31 19:51S 42°51' E 147°20'0 0.1
2017-Mar-31 19:30S 42°51' E 147°20'0 0.1
2017-Mar-31 19:00S 42°51' E 147°20'0 0.0
2017-Mar-31 18:30S 42°51' E 147°20'0 0.0
2017-Mar-31 18:00S 42°51' E 147°20'0 0.0
2017-Mar-31 17:30S 42°51' E 147°20'0 0.0
2017-Mar-31 17:00S 42°51' E 147°20'0 0.0
2017-Mar-31 16:30S 42°51' E 147°20'0 0.0
2017-Mar-31 16:00S 42°51' E 147°20'0 0.0
2017-Mar-31 15:30S 42°51' E 147°20'0 0.0
2017-Mar-31 15:00S 42°51' E 147°20'0 0.0
2017-Mar-31 14:00S 42°51' E 147°20'0 0.0
2017-Mar-31 13:30S 42°51' E 147°20'0 0.0
2017-Mar-31 13:00S 42°51' E 147°20'0 0.0
2017-Mar-31 12:30S 42°51' E 147°20'0 0.0
2017-Mar-31 12:00S 42°51' E 147°20'0 0.0
2017-Mar-31 11:30S 42°51' E 147°20'0 0.0
2017-Mar-31 11:00S 42°51' E 147°20'0 0.0
2017-Mar-31 10:30S 42°51' E 147°20'0 0.0
2017-Mar-31 10:00S 42°51' E 147°20'0 0.0
2017-Mar-31 09:30S 42°51' E 147°20'0 0.1
2017-Mar-31 09:00S 42°51' E 147°20'0 0.1
2017-Mar-31 08:30S 42°51' E 147°20'0 0.0
2017-Mar-31 08:00S 42°51' E 147°20'0 0.0
2017-Mar-31 07:30S 42°51' E 147°20'2 4.1
2017-Mar-31 06:58S 42°53' E 147°21'0 0.5
2017-Mar-31 06:28S 42°53' E 147°20'0 0.0
2017-Mar-31 05:58S 42°53' E 147°20'0 0.0
2017-Mar-31 05:28S 42°53' E 147°20'0 0.0
2017-Mar-31 04:58S 42°53' E 147°20'0 0.0
2017-Mar-31 04:31S 42°53' E 147°20'0 0.0
2017-Mar-31 03:28S 42°53' E 147°20'0 0.0
2017-Mar-31 02:31S 42°53' E 147°20'0 0.0
2017-Mar-31 01:31S 42°53' E 147°20'0 0.0
2017-Mar-31 00:31S 42°53' E 147°20'0 0.0
2017-Mar-30 23:31S 42°53' E 147°20'0 0.0
2017-Mar-30 22:31S 42°53' E 147°20'0 0.0
2017-Mar-30 21:31S 42°53' E 147°20'0 0.0
2017-Mar-30 20:31S 42°53' E 147°20'0 0.0
2017-Mar-30 19:31S 42°53' E 147°20'0 0.0
2017-Mar-30 18:31S 42°53' E 147°20'0 0.0
2017-Mar-30 17:31S 42°53' E 147°20'0 0.0
2017-Mar-30 16:31S 42°53' E 147°20'0 0.0
2017-Mar-30 15:31S 42°53' E 147°20'0 0.0
2017-Mar-30 14:31S 42°53' E 147°20'0 0.0
2017-Mar-30 13:31S 42°53' E 147°20'0 0.0
2017-Mar-30 12:31S 42°53' E 147°20'0 0.0
2017-Mar-30 11:31S 42°53' E 147°20'0 0.0
2017-Mar-30 10:31S 42°53' E 147°20'0 0.0
2017-Mar-30 09:31S 42°53' E 147°20'0 0.0
2017-Mar-30 08:31S 42°53' E 147°20'0 0.0
2017-Mar-30 07:31S 42°53' E 147°20'0 0.2
2017-Mar-30 06:33S 42°53' E 147°20'4 3.4
2017-Mar-30 05:31S 42°56' E 147°24'0 0.0
2017-Mar-30 04:31S 42°56' E 147°24'0 0.0
2017-Mar-30 03:31S 42°56' E 147°24'0 0.0
2017-Mar-30 02:31S 42°56' E 147°24'0 0.0
2017-Mar-30 01:31S 42°56' E 147°24'0 0.0
2017-Mar-30 00:32S 42°56' E 147°24'0 0.1
2017-Mar-29 23:32S 42°56' E 147°24'0 0.0
2017-Mar-29 22:33S 42°56' E 147°24'0 0.0
2017-Mar-29 21:33S 42°56' E 147°24'0 0.0
2017-Mar-29 20:33S 42°56' E 147°24'3 3.1
2017-Mar-29 19:33S 42°59' E 147°22'6 6.1
2017-Mar-29 18:33S 43°05' E 147°24'105 8.4
2017-Mar-29 06:00S 44°24' E 149°00'29 9.8 210 / 21998.410.8 11.810.413.9
2017-Mar-29 03:00S 44°48' E 149°24'3210.7 360 / 35997.2 5.4 17.012.915.9
2017-Mar-29 00:00S 45°12' E 149°54'3210.6 350 / 27999.710.8 16.513.215.3
2017-Mar-28 21:00S 45°36' E 150°24'115 9.6 340 / 291000.7 5.4 15.711.513.8
2017-Mar-28 09:00S 47°00' E 152°18'68 7.5 330 / 341000.5 5.4 14.611.612.6
2017-Mar-28 00:00S 47°54' E 153°18'   240 / 11997.3 2.2 6.9 5.4 7.5

Dump ship's entire track history